sensor_id;sensor_type;location;lat;lon;timestamp;P1;durP1;ratioP1;P2;durP2;ratioP2
49450;SDS011;35336;48.400;10.886;2023-09-19T00:00:06;1.80;;;1.13;;
49450;SDS011;35336;48.400;10.886;2023-09-19T00:00:22;3.50;;;1.23;;
49450;SDS011;35336;48.400;10.886;2023-09-19T00:00:40;4.28;;;1.10;;
49450;SDS011;35336;48.400;10.886;2023-09-19T00:00:58;4.67;;;1.10;;
49450;SDS011;35336;48.400;10.886;2023-09-19T00:01:18;2.97;;;1.17;;
49450;SDS011;35336;48.400;10.886;2023-09-19T00:01:36;1.75;;;1.00;;
49450;SDS011;35336;48.400;10.886;2023-09-19T00:01:53;1.00;;;0.90;;
49450;SDS011;35336;48.400;10.886;2023-09-19T00:02:11;1.70;;;0.90;;
49450;SDS011;35336;48.400;10.886;2023-09-19T00:02:26;1.50;;;0.95;;
49450;SDS011;35336;48.400;10.886;2023-09-19T00:02:42;1.27;;;1.10;;
49450;SDS011;35336;48.400;10.886;2023-09-19T00:02:57;1.60;;;1.07;;
49450;SDS011;35336;48.400;10.886;2023-09-19T00:03:13;1.60;;;1.10;;
49450;SDS011;35336;48.400;10.886;2023-09-19T00:03:34;3.35;;;1.20;;
49450;SDS011;35336;48.400;10.886;2023-09-19T00:03:50;2.65;;;1.15;;
49450;SDS011;35336;48.400;10.886;2023-09-19T00:04:07;1.27;;;1.00;;
49450;SDS011;35336;48.400;10.886;2023-09-19T00:04:23;2.20;;;0.90;;
49450;SDS011;35336;48.400;10.886;2023-09-19T00:04:38;1.63;;;1.00;;
49450;SDS011;35336;48.400;10.886;2023-09-19T00:04:54;1.60;;;1.10;;
49450;SDS011;35336;48.400;10.886;2023-09-19T00:05:13;1.38;;;1.00;;
49450;SDS011;35336;48.400;10.886;2023-09-19T00:05:29;1.33;;;1.00;;
49450;SDS011;35336;48.400;10.886;2023-09-19T00:05:48;1.60;;;1.02;;
49450;SDS011;35336;48.400;10.886;2023-09-19T00:06:03;3.03;;;1.10;;
49450;SDS011;35336;48.400;10.886;2023-09-19T00:06:21;3.42;;;1.10;;
49450;SDS011;35336;48.400;10.886;2023-09-19T00:06:39;2.97;;;1.15;;
49450;SDS011;35336;48.400;10.886;2023-09-19T00:06:54;1.88;;;1.00;;
49450;SDS011;35336;48.400;10.886;2023-09-19T00:07:14;1.13;;;1.02;;
49450;SDS011;35336;48.400;10.886;2023-09-19T00:07:29;1.20;;;1.10;;
49450;SDS011;35336;48.400;10.886;2023-09-19T00:07:45;1.47;;;1.10;;
49450;SDS011;35336;48.400;10.886;2023-09-19T00:08:00;1.77;;;1.10;;
49450;SDS011;35336;48.400;10.886;2023-09-19T00:08:16;2.60;;;1.10;;
49450;SDS011;35336;48.400;10.886;2023-09-19T00:08:31;2.63;;;1.00;;
49450;SDS011;35336;48.400;10.886;2023-09-19T00:08:49;1.55;;;1.00;;
49450;SDS011;35336;48.400;10.886;2023-09-19T00:09:04;1.93;;;1.00;;
49450;SDS011;35336;48.400;10.886;2023-09-19T00:09:20;1.80;;;1.00;;
49450;SDS011;35336;48.400;10.886;2023-09-19T00:09:35;1.70;;;1.00;;
49450;SDS011;35336;48.400;10.886;2023-09-19T00:09:50;2.57;;;1.00;;
49450;SDS011;35336;48.400;10.886;2023-09-19T00:10:06;4.60;;;1.00;;
49450;SDS011;35336;48.400;10.886;2023-09-19T00:10:22;4.63;;;1.20;;
49450;SDS011;35336;48.400;10.886;2023-09-19T00:10:37;2.67;;;1.15;;
49450;SDS011;35336;48.400;10.886;2023-09-19T00:10:53;2.80;;;1.00;;
49450;SDS011;35336;48.400;10.886;2023-09-19T00:11:09;3.22;;;1.15;;
49450;SDS011;35336;48.400;10.886;2023-09-19T00:11:27;1.70;;;1.10;;
49450;SDS011;35336;48.400;10.886;2023-09-19T00:11:49;1.83;;;1.10;;
49450;SDS011;35336;48.400;10.886;2023-09-19T00:12:07;1.73;;;1.00;;
49450;SDS011;35336;48.400;10.886;2023-09-19T00:12:25;2.60;;;1.10;;
49450;SDS011;35336;48.400;10.886;2023-09-19T00:12:43;2.55;;;1.20;;
49450;SDS011;35336;48.400;10.886;2023-09-19T00:12:58;1.33;;;1.10;;
49450;SDS011;35336;48.400;10.886;2023-09-19T00:13:13;2.80;;;1.10;;
49450;SDS011;35336;48.400;10.886;2023-09-19T00:13:29;2.30;;;1.07;;
49450;SDS011;35336;48.400;10.886;2023-09-19T00:13:47;1.47;;;1.10;;
49450;SDS011;35336;48.400;10.886;2023-09-19T00:14:04;1.50;;;1.10;;
49450;SDS011;35336;48.400;10.886;2023-09-19T00:14:24;3.92;;;1.15;;
49450;SDS011;35336;48.400;10.886;2023-09-19T00:14:40;3.78;;;1.10;;
49450;SDS011;35336;48.400;10.886;2023-09-19T00:14:57;2.40;;;1.40;;
49450;SDS011;35336;48.400;10.886;2023-09-19T00:15:15;3.83;;;1.10;;
49450;SDS011;35336;48.400;10.886;2023-09-19T00:15:31;3.63;;;1.10;;
49450;SDS011;35336;48.400;10.886;2023-09-19T00:15:52;1.77;;;1.10;;
49450;SDS011;35336;48.400;10.886;2023-09-19T00:16:10;3.08;;;1.13;;
49450;SDS011;35336;48.400;10.886;2023-09-19T00:16:26;1.98;;;1.08;;
49450;SDS011;35336;48.400;10.886;2023-09-19T00:16:44;3.53;;;1.10;;
49450;SDS011;35336;48.400;10.886;2023-09-19T00:17:02;3.92;;;1.17;;
49450;SDS011;35336;48.400;10.886;2023-09-19T00:17:17;1.58;;;1.10;;
49450;SDS011;35336;48.400;10.886;2023-09-19T00:17:32;1.47;;;1.00;;
49450;SDS011;35336;48.400;10.886;2023-09-19T00:17:51;1.98;;;1.05;;
49450;SDS011;35336;48.400;10.886;2023-09-19T00:18:07;2.50;;;1.20;;
49450;SDS011;35336;48.400;10.886;2023-09-19T00:18:22;3.13;;;1.23;;
49450;SDS011;35336;48.400;10.886;2023-09-19T00:18:41;3.80;;;1.27;;
49450;SDS011;35336;48.400;10.886;2023-09-19T00:18:56;3.30;;;1.10;;
49450;SDS011;35336;48.400;10.886;2023-09-19T00:19:11;2.70;;;1.10;;
49450;SDS011;35336;48.400;10.886;2023-09-19T00:19:27;2.50;;;1.10;;
49450;SDS011;35336;48.400;10.886;2023-09-19T00:19:46;2.53;;;1.10;;
49450;SDS011;35336;48.400;10.886;2023-09-19T00:20:01;2.10;;;1.15;;
49450;SDS011;35336;48.400;10.886;2023-09-19T00:20:17;2.70;;;1.10;;
49450;SDS011;35336;48.400;10.886;2023-09-19T00:20:34;2.20;;;1.20;;
49450;SDS011;35336;48.400;10.886;2023-09-19T00:20:50;2.20;;;1.20;;
49450;SDS011;35336;48.400;10.886;2023-09-19T00:21:06;1.92;;;1.05;;
49450;SDS011;35336;48.400;10.886;2023-09-19T00:21:23;1.47;;;1.00;;
49450;SDS011;35336;48.400;10.886;2023-09-19T00:21:41;2.50;;;1.10;;
49450;SDS011;35336;48.400;10.886;2023-09-19T00:21:56;2.05;;;1.00;;
49450;SDS011;35336;48.400;10.886;2023-09-19T00:22:16;1.85;;;1.20;;
49450;SDS011;35336;48.400;10.886;2023-09-19T00:22:31;1.40;;;1.10;;
49450;SDS011;35336;48.400;10.886;2023-09-19T00:22:49;0.97;;;0.90;;
49450;SDS011;35336;48.400;10.886;2023-09-19T00:23:07;2.10;;;1.00;;
49450;SDS011;35336;48.400;10.886;2023-09-19T00:23:25;3.22;;;1.30;;
49450;SDS011;35336;48.400;10.886;2023-09-19T00:23:40;3.00;;;1.40;;
49450;SDS011;35336;48.400;10.886;2023-09-19T00:23:55;2.63;;;1.20;;
49450;SDS011;35336;48.400;10.886;2023-09-19T00:24:11;3.43;;;1.20;;
49450;SDS011;35336;48.400;10.886;2023-09-19T00:24:28;3.90;;;1.17;;
49450;SDS011;35336;48.400;10.886;2023-09-19T00:24:46;2.03;;;1.10;;
49450;SDS011;35336;48.400;10.886;2023-09-19T00:25:03;2.30;;;1.20;;
49450;SDS011;35336;48.400;10.886;2023-09-19T00:25:19;2.90;;;1.00;;
49450;SDS011;35336;48.400;10.886;2023-09-19T00:25:38;2.10;;;1.10;;
49450;SDS011;35336;48.400;10.886;2023-09-19T00:25:53;1.58;;;1.20;;
49450;SDS011;35336;48.400;10.886;2023-09-19T00:26:13;1.60;;;1.20;;
49450;SDS011;35336;48.400;10.886;2023-09-19T00:26:28;1.53;;;1.20;;
49450;SDS011;35336;48.400;10.886;2023-09-19T00:26:43;1.87;;;1.30;;
49450;SDS011;35336;48.400;10.886;2023-09-19T00:27:01;2.28;;;1.40;;
49450;SDS011;35336;48.400;10.886;2023-09-19T00:27:18;2.85;;;1.48;;
49450;SDS011;35336;48.400;10.886;2023-09-19T00:27:36;3.22;;;1.30;;
49450;SDS011;35336;48.400;10.886;2023-09-19T00:27:51;3.13;;;1.20;;
49450;SDS011;35336;48.400;10.886;2023-09-19T00:28:06;1.93;;;1.10;;
49450;SDS011;35336;48.400;10.886;2023-09-19T00:28:27;1.95;;;1.10;;
49450;SDS011;35336;48.400;10.886;2023-09-19T00:28:45;3.85;;;1.60;;
49450;SDS011;35336;48.400;10.886;2023-09-19T00:29:02;4.05;;;1.58;;
49450;SDS011;35336;48.400;10.886;2023-09-19T00:29:20;3.20;;;1.10;;
49450;SDS011;35336;48.400;10.886;2023-09-19T00:29:35;3.03;;;1.20;;
49450;SDS011;35336;48.400;10.886;2023-09-19T00:29:55;4.10;;;1.20;;
49450;SDS011;35336;48.400;10.886;2023-09-19T00:30:11;2.95;;;1.20;;
49450;SDS011;35336;48.400;10.886;2023-09-19T00:30:27;4.63;;;1.25;;
49450;SDS011;35336;48.400;10.886;2023-09-19T00:30:43;4.25;;;1.20;;
49450;SDS011;35336;48.400;10.886;2023-09-19T00:31:01;2.13;;;1.10;;
49450;SDS011;35336;48.400;10.886;2023-09-19T00:31:16;2.00;;;1.00;;
49450;SDS011;35336;48.400;10.886;2023-09-19T00:31:31;1.43;;;1.20;;
49450;SDS011;35336;48.400;10.886;2023-09-19T00:31:49;1.90;;;1.30;;
49450;SDS011;35336;48.400;10.886;2023-09-19T00:32:04;2.10;;;1.27;;
49450;SDS011;35336;48.400;10.886;2023-09-19T00:32:27;1.27;;;1.17;;
49450;SDS011;35336;48.400;10.886;2023-09-19T00:32:42;1.20;;;1.10;;
49450;SDS011;35336;48.400;10.886;2023-09-19T00:32:58;1.77;;;1.20;;
49450;SDS011;35336;48.400;10.886;2023-09-19T00:33:13;3.00;;;1.30;;
49450;SDS011;35336;48.400;10.886;2023-09-19T00:33:28;3.37;;;1.30;;
49450;SDS011;35336;48.400;10.886;2023-09-19T00:33:43;2.77;;;1.13;;
49450;SDS011;35336;48.400;10.886;2023-09-19T00:33:59;2.00;;;1.10;;
49450;SDS011;35336;48.400;10.886;2023-09-19T00:34:14;1.67;;;1.20;;
49450;SDS011;35336;48.400;10.886;2023-09-19T00:34:30;2.53;;;1.20;;
49450;SDS011;35336;48.400;10.886;2023-09-19T00:34:46;3.03;;;1.20;;
49450;SDS011;35336;48.400;10.886;2023-09-19T00:35:01;1.67;;;1.20;;
49450;SDS011;35336;48.400;10.886;2023-09-19T00:35:16;1.23;;;1.13;;
49450;SDS011;35336;48.400;10.886;2023-09-19T00:35:31;1.40;;;1.13;;
49450;SDS011;35336;48.400;10.886;2023-09-19T00:35:50;2.93;;;1.20;;
49450;SDS011;35336;48.400;10.886;2023-09-19T00:36:08;2.30;;;1.13;;
49450;SDS011;35336;48.400;10.886;2023-09-19T00:36:24;1.47;;;1.30;;
49450;SDS011;35336;48.400;10.886;2023-09-19T00:36:41;2.27;;;1.30;;
49450;SDS011;35336;48.400;10.886;2023-09-19T00:36:57;2.75;;;1.30;;
49450;SDS011;35336;48.400;10.886;2023-09-19T00:37:14;2.37;;;1.30;;
49450;SDS011;35336;48.400;10.886;2023-09-19T00:37:29;1.55;;;1.20;;
49450;SDS011;35336;48.400;10.886;2023-09-19T00:37:45;2.73;;;1.23;;
49450;SDS011;35336;48.400;10.886;2023-09-19T00:38:02;2.42;;;1.30;;
49450;SDS011;35336;48.400;10.886;2023-09-19T00:38:18;1.23;;;1.13;;
49450;SDS011;35336;48.400;10.886;2023-09-19T00:38:36;2.67;;;1.33;;
49450;SDS011;35336;48.400;10.886;2023-09-19T00:38:54;3.40;;;1.48;;
49450;SDS011;35336;48.400;10.886;2023-09-19T00:39:09;2.33;;;1.27;;
49450;SDS011;35336;48.400;10.886;2023-09-19T00:39:24;1.70;;;1.10;;
49450;SDS011;35336;48.400;10.886;2023-09-19T00:39:40;3.33;;;1.20;;
49450;SDS011;35336;48.400;10.886;2023-09-19T00:39:57;3.42;;;1.20;;
49450;SDS011;35336;48.400;10.886;2023-09-19T00:40:15;1.70;;;1.20;;
49450;SDS011;35336;48.400;10.886;2023-09-19T00:40:30;1.50;;;1.20;;
49450;SDS011;35336;48.400;10.886;2023-09-19T00:40:46;1.10;;;1.00;;
49450;SDS011;35336;48.400;10.886;2023-09-19T00:41:04;2.20;;;1.10;;
49450;SDS011;35336;48.400;10.886;2023-09-19T00:41:19;2.50;;;1.00;;
49450;SDS011;35336;48.400;10.886;2023-09-19T00:41:35;1.83;;;1.13;;
49450;SDS011;35336;48.400;10.886;2023-09-19T00:41:52;3.50;;;1.40;;
49450;SDS011;35336;48.400;10.886;2023-09-19T00:42:08;2.67;;;1.27;;
49450;SDS011;35336;48.400;10.886;2023-09-19T00:42:23;2.90;;;1.50;;
49450;SDS011;35336;48.400;10.886;2023-09-19T00:42:44;2.30;;;1.35;;
49450;SDS011;35336;48.400;10.886;2023-09-19T00:43:02;2.00;;;1.30;;
49450;SDS011;35336;48.400;10.886;2023-09-19T00:43:18;2.35;;;1.50;;
49450;SDS011;35336;48.400;10.886;2023-09-19T00:43:37;1.90;;;1.30;;
49450;SDS011;35336;48.400;10.886;2023-09-19T00:43:52;2.30;;;1.60;;
49450;SDS011;35336;48.400;10.886;2023-09-19T00:44:09;1.98;;;1.52;;
49450;SDS011;35336;48.400;10.886;2023-09-19T00:44:25;2.05;;;1.15;;
49450;SDS011;35336;48.400;10.886;2023-09-19T00:44:40;2.60;;;1.30;;
49450;SDS011;35336;48.400;10.886;2023-09-19T00:44:58;2.97;;;1.30;;
49450;SDS011;35336;48.400;10.886;2023-09-19T00:45:13;3.13;;;1.30;;
49450;SDS011;35336;48.400;10.886;2023-09-19T00:45:32;2.58;;;1.50;;
49450;SDS011;35336;48.400;10.886;2023-09-19T00:45:48;1.65;;;1.38;;
49450;SDS011;35336;48.400;10.886;2023-09-19T00:46:12;1.67;;;1.13;;
49450;SDS011;35336;48.400;10.886;2023-09-19T00:46:32;3.97;;;1.27;;
49450;SDS011;35336;48.400;10.886;2023-09-19T00:46:47;2.53;;;1.30;;
49450;SDS011;35336;48.400;10.886;2023-09-19T00:47:02;1.37;;;1.20;;
49450;SDS011;35336;48.400;10.886;2023-09-19T00:47:20;2.92;;;1.40;;
49450;SDS011;35336;48.400;10.886;2023-09-19T00:47:41;2.55;;;1.38;;
49450;SDS011;35336;48.400;10.886;2023-09-19T00:47:59;3.63;;;1.70;;
49450;SDS011;35336;48.400;10.886;2023-09-19T00:48:17;5.20;;;1.90;;
49450;SDS011;35336;48.400;10.886;2023-09-19T00:48:36;3.25;;;1.30;;
49450;SDS011;35336;48.400;10.886;2023-09-19T00:48:55;1.40;;;1.20;;
49450;SDS011;35336;48.400;10.886;2023-09-19T00:49:11;1.30;;;1.20;;
49450;SDS011;35336;48.400;10.886;2023-09-19T00:49:29;1.83;;;1.20;;
49450;SDS011;35336;48.400;10.886;2023-09-19T00:49:47;2.05;;;1.30;;
49450;SDS011;35336;48.400;10.886;2023-09-19T00:50:04;1.65;;;1.40;;
49450;SDS011;35336;48.400;10.886;2023-09-19T00:50:24;1.70;;;1.30;;
49450;SDS011;35336;48.400;10.886;2023-09-19T00:50:43;2.42;;;1.20;;
49450;SDS011;35336;48.400;10.886;2023-09-19T00:51:03;1.45;;;1.00;;
49450;SDS011;35336;48.400;10.886;2023-09-19T00:51:19;2.83;;;1.10;;
49450;SDS011;35336;48.400;10.886;2023-09-19T00:51:36;3.05;;;1.23;;
49450;SDS011;35336;48.400;10.886;2023-09-19T00:51:51;3.05;;;1.30;;
49450;SDS011;35336;48.400;10.886;2023-09-19T00:52:06;4.03;;;1.47;;
49450;SDS011;35336;48.400;10.886;2023-09-19T00:52:22;4.20;;;1.50;;
49450;SDS011;35336;48.400;10.886;2023-09-19T00:52:37;3.08;;;1.30;;
49450;SDS011;35336;48.400;10.886;2023-09-19T00:52:54;1.98;;;1.20;;
49450;SDS011;35336;48.400;10.886;2023-09-19T00:53:14;2.47;;;1.10;;
49450;SDS011;35336;48.400;10.886;2023-09-19T00:53:30;2.25;;;1.20;;
49450;SDS011;35336;48.400;10.886;2023-09-19T00:53:46;2.60;;;1.30;;
49450;SDS011;35336;48.400;10.886;2023-09-19T00:54:02;3.47;;;1.40;;
49450;SDS011;35336;48.400;10.886;2023-09-19T00:54:17;2.57;;;1.30;;
49450;SDS011;35336;48.400;10.886;2023-09-19T00:54:33;1.58;;;1.20;;
49450;SDS011;35336;48.400;10.886;2023-09-19T00:54:49;2.20;;;1.30;;
49450;SDS011;35336;48.400;10.886;2023-09-19T00:55:09;3.17;;;1.50;;
49450;SDS011;35336;48.400;10.886;2023-09-19T00:55:25;2.85;;;1.48;;
49450;SDS011;35336;48.400;10.886;2023-09-19T00:55:44;3.08;;;1.40;;
49450;SDS011;35336;48.400;10.886;2023-09-19T00:56:03;2.83;;;1.30;;
49450;SDS011;35336;48.400;10.886;2023-09-19T00:56:18;2.22;;;1.25;;
49450;SDS011;35336;48.400;10.886;2023-09-19T00:56:34;2.35;;;1.30;;
49450;SDS011;35336;48.400;10.886;2023-09-19T00:56:54;2.25;;;1.27;;
49450;SDS011;35336;48.400;10.886;2023-09-19T00:57:09;2.38;;;1.23;;
49450;SDS011;35336;48.400;10.886;2023-09-19T00:57:24;2.80;;;1.30;;
49450;SDS011;35336;48.400;10.886;2023-09-19T00:57:40;2.27;;;1.30;;
49450;SDS011;35336;48.400;10.886;2023-09-19T00:57:56;1.95;;;1.60;;
49450;SDS011;35336;48.400;10.886;2023-09-19T00:58:17;3.08;;;1.65;;
49450;SDS011;35336;48.400;10.886;2023-09-19T00:58:34;5.55;;;1.50;;
49450;SDS011;35336;48.400;10.886;2023-09-19T00:58:50;4.80;;;1.48;;
49450;SDS011;35336;48.400;10.886;2023-09-19T00:59:05;2.10;;;1.37;;
49450;SDS011;35336;48.400;10.886;2023-09-19T00:59:23;1.75;;;1.30;;
49450;SDS011;35336;48.400;10.886;2023-09-19T00:59:41;4.18;;;1.30;;
49450;SDS011;35336;48.400;10.886;2023-09-19T00:59:56;3.08;;;1.40;;
49450;SDS011;35336;48.400;10.886;2023-09-19T01:00:14;1.50;;;1.25;;
49450;SDS011;35336;48.400;10.886;2023-09-19T01:00:32;2.47;;;1.30;;
49450;SDS011;35336;48.400;10.886;2023-09-19T01:00:51;2.00;;;1.30;;
49450;SDS011;35336;48.400;10.886;2023-09-19T01:01:07;2.55;;;1.40;;
49450;SDS011;35336;48.400;10.886;2023-09-19T01:01:22;2.10;;;1.30;;
49450;SDS011;35336;48.400;10.886;2023-09-19T01:01:40;2.53;;;1.55;;
49450;SDS011;35336;48.400;10.886;2023-09-19T01:01:56;4.87;;;1.87;;
49450;SDS011;35336;48.400;10.886;2023-09-19T01:02:14;4.15;;;1.40;;
49450;SDS011;35336;48.400;10.886;2023-09-19T01:02:31;2.58;;;1.15;;
49450;SDS011;35336;48.400;10.886;2023-09-19T01:02:47;1.88;;;1.33;;
49450;SDS011;35336;48.400;10.886;2023-09-19T01:03:03;2.20;;;1.43;;
49450;SDS011;35336;48.400;10.886;2023-09-19T01:03:20;2.13;;;1.35;;
49450;SDS011;35336;48.400;10.886;2023-09-19T01:03:37;1.53;;;1.10;;
49450;SDS011;35336;48.400;10.886;2023-09-19T01:03:52;2.83;;;1.20;;
49450;SDS011;35336;48.400;10.886;2023-09-19T01:04:11;3.60;;;1.30;;
49450;SDS011;35336;48.400;10.886;2023-09-19T01:04:31;2.80;;;1.30;;
49450;SDS011;35336;48.400;10.886;2023-09-19T01:04:49;3.08;;;1.35;;
49450;SDS011;35336;48.400;10.886;2023-09-19T01:05:05;4.10;;;1.50;;
49450;SDS011;35336;48.400;10.886;2023-09-19T01:05:22;4.25;;;1.40;;
49450;SDS011;35336;48.400;10.886;2023-09-19T01:05:37;3.77;;;1.50;;
49450;SDS011;35336;48.400;10.886;2023-09-19T01:05:55;2.72;;;1.45;;
49450;SDS011;35336;48.400;10.886;2023-09-19T01:06:14;2.40;;;1.30;;
49450;SDS011;35336;48.400;10.886;2023-09-19T01:06:30;3.03;;;1.50;;
49450;SDS011;35336;48.400;10.886;2023-09-19T01:06:48;2.22;;;1.52;;
49450;SDS011;35336;48.400;10.886;2023-09-19T01:07:07;2.75;;;1.27;;
49450;SDS011;35336;48.400;10.886;2023-09-19T01:07:22;3.75;;;1.30;;
49450;SDS011;35336;48.400;10.886;2023-09-19T01:07:38;4.13;;;1.37;;
49450;SDS011;35336;48.400;10.886;2023-09-19T01:07:56;3.53;;;1.40;;
49450;SDS011;35336;48.400;10.886;2023-09-19T01:08:14;1.48;;;1.27;;
49450;SDS011;35336;48.400;10.886;2023-09-19T01:08:31;2.17;;;1.38;;
49450;SDS011;35336;48.400;10.886;2023-09-19T01:08:49;2.60;;;1.30;;
49450;SDS011;35336;48.400;10.886;2023-09-19T01:09:06;1.40;;;1.23;;
49450;SDS011;35336;48.400;10.886;2023-09-19T01:09:24;2.05;;;1.30;;
49450;SDS011;35336;48.400;10.886;2023-09-19T01:09:42;2.00;;;1.30;;
49450;SDS011;35336;48.400;10.886;2023-09-19T01:09:57;1.47;;;1.23;;
49450;SDS011;35336;48.400;10.886;2023-09-19T01:10:13;2.15;;;1.40;;
49450;SDS011;35336;48.400;10.886;2023-09-19T01:10:31;3.15;;;1.30;;
49450;SDS011;35336;48.400;10.886;2023-09-19T01:11:01;3.45;;;1.20;;
49450;SDS011;35336;48.400;10.886;2023-09-19T01:11:40;3.08;;;1.40;;
49450;SDS011;35336;48.400;10.886;2023-09-19T01:12:01;3.88;;;1.33;;
49450;SDS011;35336;48.400;10.886;2023-09-19T01:12:22;3.20;;;1.40;;
49450;SDS011;35336;48.400;10.886;2023-09-19T01:13:47;2.08;;;1.13;;
49450;SDS011;35336;48.400;10.886;2023-09-19T01:14:31;1.60;;;1.37;;
49450;SDS011;35336;48.400;10.886;2023-09-19T01:15:59;3.67;;;1.33;;
49450;SDS011;35336;48.400;10.886;2023-09-19T01:16:32;3.20;;;1.60;;
49450;SDS011;35336;48.400;10.886;2023-09-19T01:17:00;3.35;;;1.23;;
49450;SDS011;35336;48.400;10.886;2023-09-19T01:17:25;3.65;;;1.38;;
49450;SDS011;35336;48.400;10.886;2023-09-19T01:22:06;1.80;;;1.40;;
49450;SDS011;35336;48.400;10.886;2023-09-19T01:22:46;2.75;;;1.63;;
49450;SDS011;35336;48.400;10.886;2023-09-19T01:23:21;3.38;;;1.42;;
49450;SDS011;35336;48.400;10.886;2023-09-19T01:25:59;2.97;;;1.50;;
49450;SDS011;35336;48.400;10.886;2023-09-19T01:30:05;2.60;;;1.45;;
49450;SDS011;35336;48.400;10.886;2023-09-19T01:30:24;4.43;;;1.33;;
49450;SDS011;35336;48.400;10.886;2023-09-19T01:30:43;3.75;;;1.40;;
49450;SDS011;35336;48.400;10.886;2023-09-19T01:31:01;1.60;;;1.50;;
49450;SDS011;35336;48.400;10.886;2023-09-19T01:31:18;1.75;;;1.40;;
49450;SDS011;35336;48.400;10.886;2023-09-19T01:31:36;1.58;;;1.30;;
49450;SDS011;35336;48.400;10.886;2023-09-19T01:31:53;2.22;;;1.30;;
49450;SDS011;35336;48.400;10.886;2023-09-19T01:32:09;2.40;;;1.30;;
49450;SDS011;35336;48.400;10.886;2023-09-19T01:32:28;1.95;;;1.38;;
49450;SDS011;35336;48.400;10.886;2023-09-19T01:32:44;2.58;;;1.40;;
49450;SDS011;35336;48.400;10.886;2023-09-19T01:33:00;2.47;;;1.50;;
49450;SDS011;35336;48.400;10.886;2023-09-19T01:33:20;3.88;;;1.70;;
49450;SDS011;35336;48.400;10.886;2023-09-19T01:33:53;3.80;;;1.70;;
49450;SDS011;35336;48.400;10.886;2023-09-19T01:34:11;1.80;;;1.40;;
49450;SDS011;35336;48.400;10.886;2023-09-19T01:34:26;2.50;;;1.50;;
49450;SDS011;35336;48.400;10.886;2023-09-19T01:34:57;3.05;;;1.55;;
49450;SDS011;35336;48.400;10.886;2023-09-19T01:35:13;3.40;;;1.40;;
49450;SDS011;35336;48.400;10.886;2023-09-19T01:35:28;3.13;;;1.30;;
49450;SDS011;35336;48.400;10.886;2023-09-19T01:35:46;4.65;;;1.70;;
49450;SDS011;35336;48.400;10.886;2023-09-19T01:36:01;4.70;;;1.70;;
49450;SDS011;35336;48.400;10.886;2023-09-19T01:36:16;1.77;;;1.20;;
49450;SDS011;35336;48.400;10.886;2023-09-19T01:36:32;2.27;;;1.33;;
49450;SDS011;35336;48.400;10.886;2023-09-19T01:36:49;2.35;;;1.50;;
49450;SDS011;35336;48.400;10.886;2023-09-19T01:37:04;1.80;;;1.50;;
49450;SDS011;35336;48.400;10.886;2023-09-19T01:37:20;2.67;;;1.50;;
49450;SDS011;35336;48.400;10.886;2023-09-19T01:37:36;3.50;;;1.40;;
49450;SDS011;35336;48.400;10.886;2023-09-19T01:37:51;3.47;;;1.30;;
49450;SDS011;35336;48.400;10.886;2023-09-19T01:38:06;4.50;;;1.40;;
49450;SDS011;35336;48.400;10.886;2023-09-19T01:38:22;3.60;;;1.50;;
49450;SDS011;35336;48.400;10.886;2023-09-19T01:38:40;2.35;;;1.63;;
49450;SDS011;35336;48.400;10.886;2023-09-19T01:38:56;2.47;;;1.67;;
49450;SDS011;35336;48.400;10.886;2023-09-19T01:39:13;3.17;;;1.60;;
49450;SDS011;35336;48.400;10.886;2023-09-19T01:39:29;3.65;;;1.50;;
49450;SDS011;35336;48.400;10.886;2023-09-19T01:39:45;1.97;;;1.50;;
49450;SDS011;35336;48.400;10.886;2023-09-19T01:40:06;1.85;;;1.40;;
49450;SDS011;35336;48.400;10.886;2023-09-19T01:40:23;2.28;;;1.45;;
49450;SDS011;35336;48.400;10.886;2023-09-19T01:40:42;2.85;;;1.60;;
49450;SDS011;35336;48.400;10.886;2023-09-19T01:41:00;2.85;;;1.58;;
49450;SDS011;35336;48.400;10.886;2023-09-19T01:41:36;2.95;;;1.70;;
49450;SDS011;35336;48.400;10.886;2023-09-19T01:43:31;2.75;;;1.50;;
49450;SDS011;35336;48.400;10.886;2023-09-19T01:43:51;3.35;;;1.60;;
49450;SDS011;35336;48.400;10.886;2023-09-19T01:44:11;3.47;;;1.52;;
49450;SDS011;35336;48.400;10.886;2023-09-19T01:45:05;1.60;;;1.30;;
49450;SDS011;35336;48.400;10.886;2023-09-19T01:46:33;2.88;;;1.50;;
49450;SDS011;35336;48.400;10.886;2023-09-19T01:46:50;2.20;;;1.50;;
49450;SDS011;35336;48.400;10.886;2023-09-19T01:47:10;2.10;;;1.50;;
49450;SDS011;35336;48.400;10.886;2023-09-19T01:47:39;3.05;;;1.50;;
49450;SDS011;35336;48.400;10.886;2023-09-19T01:48:05;5.55;;;1.63;;
49450;SDS011;35336;48.400;10.886;2023-09-19T01:48:45;4.57;;;1.70;;
49450;SDS011;35336;48.400;10.886;2023-09-19T01:49:50;3.25;;;1.60;;
49450;SDS011;35336;48.400;10.886;2023-09-19T01:50:43;2.65;;;1.63;;
49450;SDS011;35336;48.400;10.886;2023-09-19T01:51:08;2.40;;;1.50;;
49450;SDS011;35336;48.400;10.886;2023-09-19T01:51:32;1.60;;;1.50;;
49450;SDS011;35336;48.400;10.886;2023-09-19T01:52:08;3.83;;;1.80;;
49450;SDS011;35336;48.400;10.886;2023-09-19T01:52:28;2.20;;;1.55;;
49450;SDS011;35336;48.400;10.886;2023-09-19T01:52:54;3.15;;;1.70;;
49450;SDS011;35336;48.400;10.886;2023-09-19T01:53:25;2.72;;;1.60;;
49450;SDS011;35336;48.400;10.886;2023-09-19T01:54:16;2.33;;;1.38;;
49450;SDS011;35336;48.400;10.886;2023-09-19T01:54:40;3.08;;;1.70;;
49450;SDS011;35336;48.400;10.886;2023-09-19T01:55:02;2.45;;;1.70;;
49450;SDS011;35336;48.400;10.886;2023-09-19T01:55:23;3.97;;;1.77;;
49450;SDS011;35336;48.400;10.886;2023-09-19T01:55:46;3.80;;;1.70;;
49450;SDS011;35336;48.400;10.886;2023-09-19T01:56:04;3.38;;;1.73;;
49450;SDS011;35336;48.400;10.886;2023-09-19T01:56:28;2.00;;;1.50;;
49450;SDS011;35336;48.400;10.886;2023-09-19T01:56:59;2.45;;;1.63;;
49450;SDS011;35336;48.400;10.886;2023-09-19T01:58:32;2.05;;;1.50;;
49450;SDS011;35336;48.400;10.886;2023-09-19T01:58:50;4.30;;;1.55;;
49450;SDS011;35336;48.400;10.886;2023-09-19T01:59:16;2.45;;;1.63;;
49450;SDS011;35336;48.400;10.886;2023-09-19T01:59:43;2.95;;;1.55;;
49450;SDS011;35336;48.400;10.886;2023-09-19T02:00:05;2.00;;;1.52;;
49450;SDS011;35336;48.400;10.886;2023-09-19T02:00:22;2.08;;;1.50;;
49450;SDS011;35336;48.400;10.886;2023-09-19T02:00:39;1.90;;;1.50;;
49450;SDS011;35336;48.400;10.886;2023-09-19T02:00:59;3.33;;;1.52;;
49450;SDS011;35336;48.400;10.886;2023-09-19T02:01:22;4.18;;;1.40;;
49450;SDS011;35336;48.400;10.886;2023-09-19T02:01:42;4.50;;;1.60;;
49450;SDS011;35336;48.400;10.886;2023-09-19T02:01:59;2.95;;;1.42;;
49450;SDS011;35336;48.400;10.886;2023-09-19T02:02:15;5.15;;;1.50;;
49450;SDS011;35336;48.400;10.886;2023-09-19T02:02:38;5.95;;;1.58;;
49450;SDS011;35336;48.400;10.886;2023-09-19T02:02:56;3.50;;;1.38;;
49450;SDS011;35336;48.400;10.886;2023-09-19T02:03:14;1.80;;;1.38;;
49450;SDS011;35336;48.400;10.886;2023-09-19T02:03:30;2.30;;;1.40;;
49450;SDS011;35336;48.400;10.886;2023-09-19T02:03:47;2.80;;;1.50;;
49450;SDS011;35336;48.400;10.886;2023-09-19T02:04:03;2.80;;;1.52;;
49450;SDS011;35336;48.400;10.886;2023-09-19T02:04:19;3.50;;;1.70;;
49450;SDS011;35336;48.400;10.886;2023-09-19T02:04:34;2.87;;;1.50;;
49450;SDS011;35336;48.400;10.886;2023-09-19T02:04:52;2.13;;;1.30;;
49450;SDS011;35336;48.400;10.886;2023-09-19T02:05:10;3.97;;;1.60;;
49450;SDS011;35336;48.400;10.886;2023-09-19T02:05:28;3.97;;;1.67;;
49450;SDS011;35336;48.400;10.886;2023-09-19T02:05:50;2.78;;;1.83;;
49450;SDS011;35336;48.400;10.886;2023-09-19T02:06:06;2.22;;;1.50;;
49450;SDS011;35336;48.400;10.886;2023-09-19T02:06:23;1.90;;;1.40;;